sensor_id;sensor_type;location;lat;lon;timestamp;temperature;humidity
3564;DHT22;1796;52.388;13.096;2023-05-18T00:00:43;7.60;99.90
3564;DHT22;1796;52.388;13.096;2023-05-18T00:03:11;7.50;99.90
3564;DHT22;1796;52.388;13.096;2023-05-18T00:05:38;7.50;99.90
3564;DHT22;1796;52.388;13.096;2023-05-18T00:08:07;7.50;99.90
3564;DHT22;1796;52.388;13.096;2023-05-18T00:10:34;7.50;99.90
3564;DHT22;1796;52.388;13.096;2023-05-18T00:13:02;7.30;99.90
3564;DHT22;1796;52.388;13.096;2023-05-18T00:15:29;7.20;99.90
3564;DHT22;1796;52.388;13.096;2023-05-18T00:17:56;7.20;99.90
3564;DHT22;1796;52.388;13.096;2023-05-18T00:20:23;7.10;99.90
3564;DHT22;1796;52.388;13.096;2023-05-18T00:22:51;7.00;99.90
3564;DHT22;1796;52.388;13.096;2023-05-18T00:25:18;7.00;99.90
3564;DHT22;1796;52.388;13.096;2023-05-18T00:27:46;7.10;99.90
3564;DHT22;1796;52.388;13.096;2023-05-18T00:30:15;7.00;99.90
3564;DHT22;1796;52.388;13.096;2023-05-18T00:32:42;6.90;99.90
3564;DHT22;1796;52.388;13.096;2023-05-18T00:35:10;6.90;99.90
3564;DHT22;1796;52.388;13.096;2023-05-18T00:37:36;6.90;99.90
3564;DHT22;1796;52.388;13.096;2023-05-18T00:40:04;6.80;99.90
3564;DHT22;1796;52.388;13.096;2023-05-18T00:42:32;6.80;99.90
3564;DHT22;1796;52.388;13.096;2023-05-18T00:44:59;6.80;99.90
3564;DHT22;1796;52.388;13.096;2023-05-18T00:47:27;6.80;99.90
3564;DHT22;1796;52.388;13.096;2023-05-18T00:49:54;6.70;99.90
3564;DHT22;1796;52.388;13.096;2023-05-18T00:52:21;6.60;99.90
3564;DHT22;1796;52.388;13.096;2023-05-18T00:54:48;6.60;99.90
3564;DHT22;1796;52.388;13.096;2023-05-18T00:57:15;6.50;99.90
3564;DHT22;1796;52.388;13.096;2023-05-18T00:59:44;6.40;99.90
3564;DHT22;1796;52.388;13.096;2023-05-18T01:02:11;6.40;99.90
3564;DHT22;1796;52.388;13.096;2023-05-18T01:04:40;6.40;99.90
3564;DHT22;1796;52.388;13.096;2023-05-18T01:07:07;6.40;99.90
3564;DHT22;1796;52.388;13.096;2023-05-18T01:09:35;6.30;99.90
3564;DHT22;1796;52.388;13.096;2023-05-18T01:12:09;6.20;99.90
3564;DHT22;1796;52.388;13.096;2023-05-18T01:14:42;6.20;99.90
3564;DHT22;1796;52.388;13.096;2023-05-18T01:17:19;6.10;99.90
3564;DHT22;1796;52.388;13.096;2023-05-18T01:20:21;6.10;99.90
3564;DHT22;1796;52.388;13.096;2023-05-18T01:23:05;6.20;99.90
3564;DHT22;1796;52.388;13.096;2023-05-18T01:25:46;6.30;99.90
3564;DHT22;1796;52.388;13.096;2023-05-18T01:28:19;6.30;99.90
3564;DHT22;1796;52.388;13.096;2023-05-18T01:30:46;6.20;99.90
3564;DHT22;1796;52.388;13.096;2023-05-18T01:33:14;6.20;99.90
3564;DHT22;1796;52.388;13.096;2023-05-18T01:35:40;6.30;99.90
3564;DHT22;1796;52.388;13.096;2023-05-18T01:38:13;6.40;99.90
3564;DHT22;1796;52.388;13.096;2023-05-18T01:40:49;6.40;99.90
3564;DHT22;1796;52.388;13.096;2023-05-18T01:43:21;6.20;99.90
3564;DHT22;1796;52.388;13.096;2023-05-18T01:45:51;6.20;99.90
3564;DHT22;1796;52.388;13.096;2023-05-18T01:48:23;6.10;99.90
3564;DHT22;1796;52.388;13.096;2023-05-18T01:50:53;6.10;99.90
3564;DHT22;1796;52.388;13.096;2023-05-18T01:53:24;6.10;99.90
3564;DHT22;1796;52.388;13.096;2023-05-18T01:55:53;6.00;99.90
3564;DHT22;1796;52.388;13.096;2023-05-18T01:58:22;6.00;99.90
3564;DHT22;1796;52.388;13.096;2023-05-18T02:00:50;6.10;99.90
3564;DHT22;1796;52.388;13.096;2023-05-18T02:03:17;6.00;99.90
3564;DHT22;1796;52.388;13.096;2023-05-18T02:05:44;5.90;99.90
3564;DHT22;1796;52.388;13.096;2023-05-18T02:08:11;5.90;99.90
3564;DHT22;1796;52.388;13.096;2023-05-18T02:10:38;5.80;99.90
3564;DHT22;1796;52.388;13.096;2023-05-18T02:13:04;5.80;99.90
3564;DHT22;1796;52.388;13.096;2023-05-18T02:15:33;5.80;99.90
3564;DHT22;1796;52.388;13.096;2023-05-18T02:18:00;5.80;99.90
3564;DHT22;1796;52.388;13.096;2023-05-18T02:20:27;5.80;99.90
3564;DHT22;1796;52.388;13.096;2023-05-18T02:22:57;5.80;99.90
3564;DHT22;1796;52.388;13.096;2023-05-18T02:25:25;5.80;99.90
3564;DHT22;1796;52.388;13.096;2023-05-18T02:27:52;5.80;99.90
3564;DHT22;1796;52.388;13.096;2023-05-18T02:30:19;5.90;99.90
3564;DHT22;1796;52.388;13.096;2023-05-18T02:32:47;5.80;99.90
3564;DHT22;1796;52.388;13.096;2023-05-18T02:35:15;5.70;99.90
3564;DHT22;1796;52.388;13.096;2023-05-18T02:37:42;5.60;99.90
3564;DHT22;1796;52.388;13.096;2023-05-18T02:40:10;5.60;99.90
3564;DHT22;1796;52.388;13.096;2023-05-18T02:42:38;5.60;99.90
3564;DHT22;1796;52.388;13.096;2023-05-18T02:45:06;5.50;99.90
3564;DHT22;1796;52.388;13.096;2023-05-18T02:47:33;5.50;99.90
3564;DHT22;1796;52.388;13.096;2023-05-18T02:50:02;5.40;99.90
3564;DHT22;1796;52.388;13.096;2023-05-18T02:52:29;5.30;99.90
3564;DHT22;1796;52.388;13.096;2023-05-18T02:54:56;5.30;99.90
3564;DHT22;1796;52.388;13.096;2023-05-18T02:57:23;5.30;99.90
3564;DHT22;1796;52.388;13.096;2023-05-18T02:59:50;5.30;99.90
3564;DHT22;1796;52.388;13.096;2023-05-18T03:02:17;5.40;99.90
3564;DHT22;1796;52.388;13.096;2023-05-18T03:04:47;5.50;99.90
3564;DHT22;1796;52.388;13.096;2023-05-18T03:07:19;5.50;99.90
3564;DHT22;1796;52.388;13.096;2023-05-18T03:09:46;5.70;99.90
3564;DHT22;1796;52.388;13.096;2023-05-18T03:12:13;5.70;99.90
3564;DHT22;1796;52.388;13.096;2023-05-18T03:14:40;5.60;99.90
3564;DHT22;1796;52.388;13.096;2023-05-18T03:17:07;5.60;99.90
3564;DHT22;1796;52.388;13.096;2023-05-18T03:19:34;5.60;99.90
3564;DHT22;1796;52.388;13.096;2023-05-18T03:22:01;5.50;99.90
3564;DHT22;1796;52.388;13.096;2023-05-18T03:24:29;5.50;99.90
3564;DHT22;1796;52.388;13.096;2023-05-18T03:27:05;5.60;99.90
3564;DHT22;1796;52.388;13.096;2023-05-18T03:29:32;5.60;99.90
3564;DHT22;1796;52.388;13.096;2023-05-18T03:31:59;5.50;99.90
3564;DHT22;1796;52.388;13.096;2023-05-18T03:34:26;5.60;99.90
3564;DHT22;1796;52.388;13.096;2023-05-18T03:36:54;5.70;99.90
3564;DHT22;1796;52.388;13.096;2023-05-18T03:39:22;5.70;99.90
3564;DHT22;1796;52.388;13.096;2023-05-18T03:41:50;5.80;99.90
3564;DHT22;1796;52.388;13.096;2023-05-18T03:44:17;6.00;99.90
3564;DHT22;1796;52.388;13.096;2023-05-18T03:46:44;6.40;99.90
3564;DHT22;1796;52.388;13.096;2023-05-18T03:49:11;6.70;99.90
3564;DHT22;1796;52.388;13.096;2023-05-18T03:51:38;7.10;99.90
3564;DHT22;1796;52.388;13.096;2023-05-18T03:54:05;7.30;99.90
3564;DHT22;1796;52.388;13.096;2023-05-18T03:56:32;7.60;99.90
3564;DHT22;1796;52.388;13.096;2023-05-18T03:59:00;7.90;99.90
3564;DHT22;1796;52.388;13.096;2023-05-18T04:01:29;8.00;99.90
3564;DHT22;1796;52.388;13.096;2023-05-18T04:03:57;8.30;99.90
3564;DHT22;1796;52.388;13.096;2023-05-18T04:06:24;8.50;99.90
3564;DHT22;1796;52.388;13.096;2023-05-18T04:08:51;8.60;99.90
3564;DHT22;1796;52.388;13.096;2023-05-18T04:11:19;8.80;99.90
3564;DHT22;1796;52.388;13.096;2023-05-18T04:13:46;9.00;99.90
3564;DHT22;1796;52.388;13.096;2023-05-18T04:16:16;9.30;99.90
3564;DHT22;1796;52.388;13.096;2023-05-18T04:18:44;9.60;99.90
3564;DHT22;1796;52.388;13.096;2023-05-18T04:21:10;9.90;99.90
3564;DHT22;1796;52.388;13.096;2023-05-18T04:23:37;10.20;99.90
3564;DHT22;1796;52.388;13.096;2023-05-18T04:26:05;10.30;99.90
3564;DHT22;1796;52.388;13.096;2023-05-18T04:28:32;10.40;99.90
3564;DHT22;1796;52.388;13.096;2023-05-18T04:30:59;10.70;99.90
3564;DHT22;1796;52.388;13.096;2023-05-18T04:33:28;11.00;99.90
3564;DHT22;1796;52.388;13.096;2023-05-18T04:35:55;11.30;99.90
3564;DHT22;1796;52.388;13.096;2023-05-18T04:38:23;11.70;99.90
3564;DHT22;1796;52.388;13.096;2023-05-18T04:40:50;11.90;99.90
3564;DHT22;1796;52.388;13.096;2023-05-18T04:43:20;11.90;99.90
3564;DHT22;1796;52.388;13.096;2023-05-18T04:45:47;12.00;99.90
3564;DHT22;1796;52.388;13.096;2023-05-18T04:48:14;11.60;99.90
3564;DHT22;1796;52.388;13.096;2023-05-18T04:50:45;11.80;99.90
3564;DHT22;1796;52.388;13.096;2023-05-18T04:53:11;11.80;99.90
3564;DHT22;1796;52.388;13.096;2023-05-18T04:55:42;12.20;99.90
3564;DHT22;1796;52.388;13.096;2023-05-18T04:58:11;12.50;99.90
3564;DHT22;1796;52.388;13.096;2023-05-18T05:00:37;12.70;99.90
3564;DHT22;1796;52.388;13.096;2023-05-18T05:03:04;12.90;99.90
3564;DHT22;1796;52.388;13.096;2023-05-18T05:05:31;13.00;99.90
3564;DHT22;1796;52.388;13.096;2023-05-18T05:08:00;12.50;99.90
3564;DHT22;1796;52.388;13.096;2023-05-18T05:10:29;12.00;99.90
3564;DHT22;1796;52.388;13.096;2023-05-18T05:12:56;11.50;99.90
3564;DHT22;1796;52.388;13.096;2023-05-18T05:15:22;11.90;99.90
3564;DHT22;1796;52.388;13.096;2023-05-18T05:17:49;12.00;99.90
3564;DHT22;1796;52.388;13.096;2023-05-18T05:20:16;12.00;99.90
3564;DHT22;1796;52.388;13.096;2023-05-18T05:22:43;12.30;99.90
3564;DHT22;1796;52.388;13.096;2023-05-18T05:25:12;12.30;99.90
3564;DHT22;1796;52.388;13.096;2023-05-18T05:27:39;12.50;99.90
3564;DHT22;1796;52.388;13.096;2023-05-18T05:30:07;13.00;99.90
3564;DHT22;1796;52.388;13.096;2023-05-18T05:32:34;13.10;99.90
3564;DHT22;1796;52.388;13.096;2023-05-18T05:35:01;13.40;99.90
3564;DHT22;1796;52.388;13.096;2023-05-18T05:37:28;13.60;99.90
3564;DHT22;1796;52.388;13.096;2023-05-18T05:39:55;13.80;99.90
3564;DHT22;1796;52.388;13.096;2023-05-18T05:42:23;13.70;99.90
3564;DHT22;1796;52.388;13.096;2023-05-18T05:44:50;13.60;99.90
3564;DHT22;1796;52.388;13.096;2023-05-18T05:47:17;13.70;99.90
3564;DHT22;1796;52.388;13.096;2023-05-18T05:49:44;13.80;99.90
3564;DHT22;1796;52.388;13.096;2023-05-18T05:52:10;13.60;99.90
3564;DHT22;1796;52.388;13.096;2023-05-18T05:54:38;14.30;99.90
3564;DHT22;1796;52.388;13.096;2023-05-18T05:57:05;13.90;99.90
3564;DHT22;1796;52.388;13.096;2023-05-18T05:59:33;12.80;99.90
3564;DHT22;1796;52.388;13.096;2023-05-18T06:02:00;13.50;99.90
3564;DHT22;1796;52.388;13.096;2023-05-18T06:04:27;13.70;99.90
3564;DHT22;1796;52.388;13.096;2023-05-18T06:06:54;14.60;99.90
3564;DHT22;1796;52.388;13.096;2023-05-18T06:09:21;14.40;99.90
3564;DHT22;1796;52.388;13.096;2023-05-18T06:11:48;15.20;99.90
3564;DHT22;1796;52.388;13.096;2023-05-18T06:14:15;14.70;99.90
3564;DHT22;1796;52.388;13.096;2023-05-18T06:16:43;15.10;99.90
3564;DHT22;1796;52.388;13.096;2023-05-18T06:19:10;15.00;99.90
3564;DHT22;1796;52.388;13.096;2023-05-18T06:21:37;15.60;99.90
3564;DHT22;1796;52.388;13.096;2023-05-18T06:24:04;14.90;99.90
3564;DHT22;1796;52.388;13.096;2023-05-18T06:26:31;14.90;99.90
3564;DHT22;1796;52.388;13.096;2023-05-18T06:28:58;14.70;99.90
3564;DHT22;1796;52.388;13.096;2023-05-18T06:31:25;15.00;99.90
3564;DHT22;1796;52.388;13.096;2023-05-18T06:33:53;15.10;99.90
3564;DHT22;1796;52.388;13.096;2023-05-18T06:36:20;15.70;99.90
3564;DHT22;1796;52.388;13.096;2023-05-18T06:38:47;16.50;99.90
3564;DHT22;1796;52.388;13.096;2023-05-18T06:41:14;16.90;99.90
3564;DHT22;1796;52.388;13.096;2023-05-18T06:43:41;17.10;99.90
3564;DHT22;1796;52.388;13.096;2023-05-18T06:46:08;17.20;99.90
3564;DHT22;1796;52.388;13.096;2023-05-18T06:48:35;17.00;99.90
3564;DHT22;1796;52.388;13.096;2023-05-18T06:51:04;17.50;99.90
3564;DHT22;1796;52.388;13.096;2023-05-18T06:53:31;18.00;99.90
3564;DHT22;1796;52.388;13.096;2023-05-18T06:55:58;18.20;99.90
3564;DHT22;1796;52.388;13.096;2023-05-18T06:58:25;18.40;99.90
3564;DHT22;1796;52.388;13.096;2023-05-18T07:00:52;18.50;99.90
3564;DHT22;1796;52.388;13.096;2023-05-18T07:03:22;18.80;99.90
3564;DHT22;1796;52.388;13.096;2023-05-18T07:05:49;19.00;99.90
3564;DHT22;1796;52.388;13.096;2023-05-18T07:08:17;19.10;99.90
3564;DHT22;1796;52.388;13.096;2023-05-18T07:10:44;17.80;99.90
3564;DHT22;1796;52.388;13.096;2023-05-18T07:13:11;18.40;99.90
3564;DHT22;1796;52.388;13.096;2023-05-18T07:15:38;18.60;99.90
3564;DHT22;1796;52.388;13.096;2023-05-18T07:18:05;18.90;99.90
3564;DHT22;1796;52.388;13.096;2023-05-18T07:20:32;18.90;99.90
3564;DHT22;1796;52.388;13.096;2023-05-18T07:22:59;19.20;99.90
3564;DHT22;1796;52.388;13.096;2023-05-18T07:25:27;20.20;99.90
3564;DHT22;1796;52.388;13.096;2023-05-18T07:27:54;20.60;99.90
3564;DHT22;1796;52.388;13.096;2023-05-18T07:30:21;20.50;99.90
3564;DHT22;1796;52.388;13.096;2023-05-18T07:32:48;19.90;99.90
3564;DHT22;1796;52.388;13.096;2023-05-18T07:35:15;19.40;99.90
3564;DHT22;1796;52.388;13.096;2023-05-18T07:37:44;17.80;99.90
3564;DHT22;1796;52.388;13.096;2023-05-18T07:40:11;18.50;99.90
3564;DHT22;1796;52.388;13.096;2023-05-18T07:42:41;18.10;99.90
3564;DHT22;1796;52.388;13.096;2023-05-18T07:45:09;18.80;99.90
3564;DHT22;1796;52.388;13.096;2023-05-18T07:47:36;19.50;99.90
3564;DHT22;1796;52.388;13.096;2023-05-18T07:50:03;19.90;99.90
3564;DHT22;1796;52.388;13.096;2023-05-18T07:52:30;20.00;99.90
3564;DHT22;1796;52.388;13.096;2023-05-18T07:54:57;20.60;99.90
3564;DHT22;1796;52.388;13.096;2023-05-18T07:57:24;21.60;99.90
3564;DHT22;1796;52.388;13.096;2023-05-18T07:59:53;22.20;99.90
3564;DHT22;1796;52.388;13.096;2023-05-18T08:02:19;21.90;99.90
3564;DHT22;1796;52.388;13.096;2023-05-18T08:04:47;21.30;99.60
3564;DHT22;1796;52.388;13.096;2023-05-18T08:07:14;20.50;98.50
3564;DHT22;1796;52.388;13.096;2023-05-18T08:09:42;18.60;98.10
3564;DHT22;1796;52.388;13.096;2023-05-18T08:12:09;17.80;99.30
3564;DHT22;1796;52.388;13.096;2023-05-18T08:14:36;18.60;99.90
3564;DHT22;1796;52.388;13.096;2023-05-18T08:17:05;20.10;98.80
3564;DHT22;1796;52.388;13.096;2023-05-18T08:19:32;21.20;98.30
3564;DHT22;1796;52.388;13.096;2023-05-18T08:21:59;21.40;97.70
3564;DHT22;1796;52.388;13.096;2023-05-18T08:24:25;20.30;97.80
3564;DHT22;1796;52.388;13.096;2023-05-18T08:26:52;20.80;98.30
3564;DHT22;1796;52.388;13.096;2023-05-18T08:29:19;20.20;97.90
3564;DHT22;1796;52.388;13.096;2023-05-18T08:31:46;21.50;98.40
3564;DHT22;1796;52.388;13.096;2023-05-18T08:34:14;22.30;97.60
3564;DHT22;1796;52.388;13.096;2023-05-18T08:36:41;21.90;97.10
3564;DHT22;1796;52.388;13.096;2023-05-18T08:39:10;21.60;96.90
3564;DHT22;1796;52.388;13.096;2023-05-18T08:41:40;20.90;96.50
3564;DHT22;1796;52.388;13.096;2023-05-18T08:44:13;20.00;97.10
3564;DHT22;1796;52.388;13.096;2023-05-18T08:46:41;19.90;96.30
3564;DHT22;1796;52.388;13.096;2023-05-18T08:49:16;18.10;96.40
3564;DHT22;1796;52.388;13.096;2023-05-18T08:51:45;18.10;97.50
3564;DHT22;1796;52.388;13.096;2023-05-18T08:54:17;18.10;97.60
3564;DHT22;1796;52.388;13.096;2023-05-18T08:56:46;18.30;97.70
3564;DHT22;1796;52.388;13.096;2023-05-18T08:59:15;17.20;97.90
3564;DHT22;1796;52.388;13.096;2023-05-18T09:01:44;17.40;98.40
3564;DHT22;1796;52.388;13.096;2023-05-18T09:04:13;16.90;98.90
3564;DHT22;1796;52.388;13.096;2023-05-18T09:06:40;16.80;99.30
3564;DHT22;1796;52.388;13.096;2023-05-18T09:09:08;16.80;99.00
3564;DHT22;1796;52.388;13.096;2023-05-18T09:11:36;17.10;99.40
3564;DHT22;1796;52.388;13.096;2023-05-18T09:14:04;17.40;99.20
3564;DHT22;1796;52.388;13.096;2023-05-18T09:16:31;17.10;98.90
3564;DHT22;1796;52.388;13.096;2023-05-18T09:18:59;17.10;98.90
3564;DHT22;1796;52.388;13.096;2023-05-18T09:21:29;17.00;99.20
3564;DHT22;1796;52.388;13.096;2023-05-18T09:23:57;16.90;98.60
3564;DHT22;1796;52.388;13.096;2023-05-18T09:26:24;16.50;98.20
3564;DHT22;1796;52.388;13.096;2023-05-18T09:28:53;16.20;98.30
3564;DHT22;1796;52.388;13.096;2023-05-18T09:31:21;16.00;98.40
3564;DHT22;1796;52.388;13.096;2023-05-18T09:33:48;16.00;98.40
3564;DHT22;1796;52.388;13.096;2023-05-18T09:36:16;16.00;98.70
3564;DHT22;1796;52.388;13.096;2023-05-18T09:38:45;16.20;99.00
3564;DHT22;1796;52.388;13.096;2023-05-18T09:41:13;16.10;99.20
3564;DHT22;1796;52.388;13.096;2023-05-18T09:43:41;16.20;98.50
3564;DHT22;1796;52.388;13.096;2023-05-18T09:46:10;16.20;99.00
3564;DHT22;1796;52.388;13.096;2023-05-18T09:48:41;16.20;99.40
3564;DHT22;1796;52.388;13.096;2023-05-18T09:51:10;16.20;99.30
3564;DHT22;1796;52.388;13.096;2023-05-18T09:53:39;16.00;99.50
3564;DHT22;1796;52.388;13.096;2023-05-18T09:56:07;16.00;99.40
3564;DHT22;1796;52.388;13.096;2023-05-18T09:58:37;15.90;99.60
3564;DHT22;1796;52.388;13.096;2023-05-18T10:01:04;16.20;99.10
3564;DHT22;1796;52.388;13.096;2023-05-18T10:03:34;16.30;99.00
3564;DHT22;1796;52.388;13.096;2023-05-18T10:06:03;16.30;99.20
3564;DHT22;1796;52.388;13.096;2023-05-18T10:08:31;16.50;99.00
3564;DHT22;1796;52.388;13.096;2023-05-18T10:10:58;16.40;98.80
3564;DHT22;1796;52.388;13.096;2023-05-18T10:13:27;16.30;99.00
3564;DHT22;1796;52.388;13.096;2023-05-18T10:15:57;16.70;99.30
3564;DHT22;1796;52.388;13.096;2023-05-18T10:18:25;16.90;98.60
3564;DHT22;1796;52.388;13.096;2023-05-18T10:20:53;16.70;98.90
3564;DHT22;1796;52.388;13.096;2023-05-18T10:23:21;16.50;98.70
3564;DHT22;1796;52.388;13.096;2023-05-18T10:25:49;16.60;99.10
3564;DHT22;1796;52.388;13.096;2023-05-18T10:28:19;16.50;98.20
3564;DHT22;1796;52.388;13.096;2023-05-18T10:30:52;16.30;98.50
3564;DHT22;1796;52.388;13.096;2023-05-18T10:33:22;16.20;99.10
3564;DHT22;1796;52.388;13.096;2023-05-18T10:35:50;16.00;98.40
3564;DHT22;1796;52.388;13.096;2023-05-18T10:38:18;15.60;98.60
3564;DHT22;1796;52.388;13.096;2023-05-18T10:40:47;15.50;99.10
3564;DHT22;1796;52.388;13.096;2023-05-18T10:43:15;15.70;98.10
3564;DHT22;1796;52.388;13.096;2023-05-18T10:45:45;15.50;97.10
3564;DHT22;1796;52.388;13.096;2023-05-18T10:48:14;15.80;96.90
3564;DHT22;1796;52.388;13.096;2023-05-18T10:50:47;15.80;97.80
3564;DHT22;1796;52.388;13.096;2023-05-18T10:53:27;15.70;97.10
3564;DHT22;1796;52.388;13.096;2023-05-18T10:55:55;15.50;96.60
3564;DHT22;1796;52.388;13.096;2023-05-18T10:58:24;16.10;98.40
3564;DHT22;1796;52.388;13.096;2023-05-18T11:00:54;16.20;98.30
3564;DHT22;1796;52.388;13.096;2023-05-18T11:03:24;16.20;97.80
3564;DHT22;1796;52.388;13.096;2023-05-18T11:06:02;16.20;96.90
3564;DHT22;1796;52.388;13.096;2023-05-18T11:08:29;16.40;97.40
3564;DHT22;1796;52.388;13.096;2023-05-18T11:11:01;16.20;98.10
3564;DHT22;1796;52.388;13.096;2023-05-18T11:13:29;16.20;97.60
3564;DHT22;1796;52.388;13.096;2023-05-18T11:16:04;16.10;97.30
3564;DHT22;1796;52.388;13.096;2023-05-18T11:18:41;16.10;97.40
3564;DHT22;1796;52.388;13.096;2023-05-18T11:24:22;16.00;97.70
3564;DHT22;1796;52.388;13.096;2023-05-18T11:26:51;16.40;97.60
3564;DHT22;1796;52.388;13.096;2023-05-18T11:29:20;16.30;98.00
3564;DHT22;1796;52.388;13.096;2023-05-18T11:31:49;16.40;97.80
3564;DHT22;1796;52.388;13.096;2023-05-18T11:34:41;16.10;97.50
3564;DHT22;1796;52.388;13.096;2023-05-18T11:37:09;15.90;97.70
3564;DHT22;1796;52.388;13.096;2023-05-18T11:39:37;15.80;97.10
3564;DHT22;1796;52.388;13.096;2023-05-18T11:42:08;16.00;97.10
3564;DHT22;1796;52.388;13.096;2023-05-18T11:44:36;16.10;96.80
3564;DHT22;1796;52.388;13.096;2023-05-18T11:47:07;16.10;96.90
3564;DHT22;1796;52.388;13.096;2023-05-18T11:49:45;16.00;96.90
3564;DHT22;1796;52.388;13.096;2023-05-18T11:52:19;16.30;96.70
3564;DHT22;1796;52.388;13.096;2023-05-18T11:54:49;16.10;96.70
3564;DHT22;1796;52.388;13.096;2023-05-18T11:57:18;16.50;97.00
3564;DHT22;1796;52.388;13.096;2023-05-18T11:59:46;16.70;97.70
3564;DHT22;1796;52.388;13.096;2023-05-18T12:02:19;16.90;97.00
3564;DHT22;1796;52.388;13.096;2023-05-18T12:04:49;17.00;97.20
3564;DHT22;1796;52.388;13.096;2023-05-18T12:07:17;17.20;97.10
3564;DHT22;1796;52.388;13.096;2023-05-18T12:09:45;16.90;96.50
3564;DHT22;1796;52.388;13.096;2023-05-18T12:12:13;16.80;96.70
3564;DHT22;1796;52.388;13.096;2023-05-18T12:14:42;17.10;97.00
3564;DHT22;1796;52.388;13.096;2023-05-18T12:17:10;17.80;96.70
3564;DHT22;1796;52.388;13.096;2023-05-18T12:19:40;18.00;96.70
3564;DHT22;1796;52.388;13.096;2023-05-18T12:22:09;17.80;95.90
3564;DHT22;1796;52.388;13.096;2023-05-18T12:24:36;17.40;96.20
3564;DHT22;1796;52.388;13.096;2023-05-18T12:27:05;16.60;96.30
3564;DHT22;1796;52.388;13.096;2023-05-18T12:29:32;16.80;96.70
3564;DHT22;1796;52.388;13.096;2023-05-18T12:32:04;16.90;96.50
3564;DHT22;1796;52.388;13.096;2023-05-18T12:34:31;16.60;96.50
3564;DHT22;1796;52.388;13.096;2023-05-18T12:36:58;16.40;96.80
3564;DHT22;1796;52.388;13.096;2023-05-18T12:39:26;16.60;97.20
3564;DHT22;1796;52.388;13.096;2023-05-18T12:42:07;17.30;96.90
3564;DHT22;1796;52.388;13.096;2023-05-18T12:44:34;17.50;96.40
3564;DHT22;1796;52.388;13.096;2023-05-18T12:47:02;17.50;95.90
3564;DHT22;1796;52.388;13.096;2023-05-18T12:49:35;17.10;95.10
3564;DHT22;1796;52.388;13.096;2023-05-18T12:52:08;16.90;95.70
3564;DHT22;1796;52.388;13.096;2023-05-18T12:54:46;16.60;94.80
3564;DHT22;1796;52.388;13.096;2023-05-18T12:57:15;16.10;95.10
3564;DHT22;1796;52.388;13.096;2023-05-18T12:59:46;16.00;95.50
3564;DHT22;1796;52.388;13.096;2023-05-18T13:02:25;16.20;95.80
3564;DHT22;1796;52.388;13.096;2023-05-18T13:05:00;16.30;95.90
3564;DHT22;1796;52.388;13.096;2023-05-18T13:07:27;16.50;95.90
3564;DHT22;1796;52.388;13.096;2023-05-18T13:10:01;16.40;95.00
3564;DHT22;1796;52.388;13.096;2023-05-18T13:12:42;16.20;95.70
3564;DHT22;1796;52.388;13.096;2023-05-18T13:15:11;16.30;95.80
3564;DHT22;1796;52.388;13.096;2023-05-18T13:17:38;16.70;95.60
3564;DHT22;1796;52.388;13.096;2023-05-18T13:20:13;16.50;95.80
3564;DHT22;1796;52.388;13.096;2023-05-18T13:22:40;16.30;95.60
3564;DHT22;1796;52.388;13.096;2023-05-18T13:25:09;16.50;95.90
3564;DHT22;1796;52.388;13.096;2023-05-18T13:27:37;16.90;95.90
3564;DHT22;1796;52.388;13.096;2023-05-18T13:30:05;16.60;95.60
3564;DHT22;1796;52.388;13.096;2023-05-18T13:32:32;17.00;95.80
3564;DHT22;1796;52.388;13.096;2023-05-18T13:35:00;17.20;95.70
3564;DHT22;1796;52.388;13.096;2023-05-18T13:37:27;17.20;95.80
3564;DHT22;1796;52.388;13.096;2023-05-18T13:39:54;16.90;95.50
3564;DHT22;1796;52.388;13.096;2023-05-18T13:42:22;17.10;95.00
3564;DHT22;1796;52.388;13.096;2023-05-18T13:44:49;17.00;95.10
3564;DHT22;1796;52.388;13.096;2023-05-18T13:47:15;16.80;95.20
3564;DHT22;1796;52.388;13.096;2023-05-18T13:49:42;17.30;95.00
3564;DHT22;1796;52.388;13.096;2023-05-18T13:52:09;17.80;94.90
3564;DHT22;1796;52.388;13.096;2023-05-18T13:54:36;18.20;94.90
3564;DHT22;1796;52.388;13.096;2023-05-18T13:57:03;17.90;95.30
3564;DHT22;1796;52.388;13.096;2023-05-18T13:59:31;17.80;95.20
3564;DHT22;1796;52.388;13.096;2023-05-18T14:01:59;17.70;95.30
3564;DHT22;1796;52.388;13.096;2023-05-18T14:04:26;18.20;95.10
3564;DHT22;1796;52.388;13.096;2023-05-18T14:06:52;18.20;95.00
3564;DHT22;1796;52.388;13.096;2023-05-18T14:09:20;18.00;95.40
3564;DHT22;1796;52.388;13.096;2023-05-18T14:11:47;17.40;95.00
3564;DHT22;1796;52.388;13.096;2023-05-18T14:14:14;16.90;95.50
3564;DHT22;1796;52.388;13.096;2023-05-18T14:16:42;16.80;95.50
3564;DHT22;1796;52.388;13.096;2023-05-18T14:19:09;16.70;95.00
3564;DHT22;1796;52.388;13.096;2023-05-18T14:21:36;16.70;95.20
3564;DHT22;1796;52.388;13.096;2023-05-18T14:24:03;17.20;95.30
3564;DHT22;1796;52.388;13.096;2023-05-18T14:26:32;17.40;95.00
3564;DHT22;1796;52.388;13.096;2023-05-18T14:28:59;17.60;94.70
3564;DHT22;1796;52.388;13.096;2023-05-18T14:31:25;18.10;94.70
3564;DHT22;1796;52.388;13.096;2023-05-18T14:33:54;18.20;94.40
3564;DHT22;1796;52.388;13.096;2023-05-18T14:36:20;18.20;94.60
3564;DHT22;1796;52.388;13.096;2023-05-18T14:38:47;18.20;94.80
3564;DHT22;1796;52.388;13.096;2023-05-18T14:41:14;18.20;94.40
3564;DHT22;1796;52.388;13.096;2023-05-18T14:43:41;18.00;94.70
3564;DHT22;1796;52.388;13.096;2023-05-18T14:46:08;17.70;95.00
3564;DHT22;1796;52.388;13.096;2023-05-18T14:48:35;17.50;94.10
3564;DHT22;1796;52.388;13.096;2023-05-18T14:51:03;17.10;94.10
3564;DHT22;1796;52.388;13.096;2023-05-18T14:53:30;17.10;93.70
3564;DHT22;1796;52.388;13.096;2023-05-18T14:55:57;17.40;93.70
3564;DHT22;1796;52.388;13.096;2023-05-18T14:58:24;17.80;93.50
3564;DHT22;1796;52.388;13.096;2023-05-18T15:00:51;17.90;93.00
3564;DHT22;1796;52.388;13.096;2023-05-18T15:03:18;17.90;93.00
3564;DHT22;1796;52.388;13.096;2023-05-18T15:05:44;18.00;92.40
3564;DHT22;1796;52.388;13.096;2023-05-18T15:08:13;18.30;92.60
3564;DHT22;1796;52.388;13.096;2023-05-18T15:10:40;18.60;92.60
3564;DHT22;1796;52.388;13.096;2023-05-18T15:13:06;18.80;92.90
3564;DHT22;1796;52.388;13.096;2023-05-18T15:15:33;18.20;93.00
3564;DHT22;1796;52.388;13.096;2023-05-18T15:18:01;18.00;92.60
3564;DHT22;1796;52.388;13.096;2023-05-18T15:20:28;18.00;93.10
3564;DHT22;1796;52.388;13.096;2023-05-18T15:22:55;18.30;93.50
3564;DHT22;1796;52.388;13.096;2023-05-18T15:25:23;18.10;92.80
3564;DHT22;1796;52.388;13.096;2023-05-18T15:27:50;17.90;92.60
3564;DHT22;1796;52.388;13.096;2023-05-18T15:30:18;17.90;93.00
3564;DHT22;1796;52.388;13.096;2023-05-18T15:32:45;17.90;92.70
3564;DHT22;1796;52.388;13.096;2023-05-18T15:35:11;17.80;92.80
3564;DHT22;1796;52.388;13.096;2023-05-18T15:37:40;18.20;93.00
3564;DHT22;1796;52.388;13.096;2023-05-18T15:40:08;18.20;93.20
3564;DHT22;1796;52.388;13.096;2023-05-18T15:42:36;18.50;93.20
3564;DHT22;1796;52.388;13.096;2023-05-18T15:45:03;17.70;92.50
3564;DHT22;1796;52.388;13.096;2023-05-18T15:47:30;17.60;92.30
3564;DHT22;1796;52.388;13.096;2023-05-18T15:49:57;17.80;92.40
3564;DHT22;1796;52.388;13.096;2023-05-18T15:52:24;18.00;92.70
3564;DHT22;1796;52.388;13.096;2023-05-18T15:54:51;18.30;92.50
3564;DHT22;1796;52.388;13.096;2023-05-18T15:57:18;17.70;92.70
3564;DHT22;1796;52.388;13.096;2023-05-18T15:59:48;17.90;92.50